Database: COMPET-N - COOP - 3PL - 4PL - CNDOOM

WAD: Doom | Doom 2 | TNT | Plutonia | AV | HR | Scythe | MM | MM2 | Requiem | CE
Category: speed | nmare | max | nm100s | tyson | pacifist | fast | respawn | nomo | misc | built | all
Highscore: ALL | IWAD | PWAD | Country | Continent

< Previous map       Next map >
Remove: wad | map | category | player | allMAP21
MapPlayerTimeDateFilenameCommentsDL
MAP21: NirvanaVincent Catalaa17.002001-11-21lv21-017.zip - 329
MAP21: NirvanaAdam Hegyi24.002000-11-23lv21-024.zip - 164
MAP21: NirvanaJonathan Rimmer30.002000-02-26lv21-030.zip - 159
MAP21: NirvanaMarijo Sedlić41.001999-09-29lv21-041.zip - 183
MAP21: NirvanaThomas Pilger43.001998-04-12lv21-043.zip - 157
MAP21: NirvanaThomas Pilger45.001998-04-01lv21-045.zip - 143
MAP21: NirvanaThomas Pilger49.001997-10-06lv21-049.zip - 144
MAP21: NirvanaDaniel Lindgren53.001996-03-13lv21-053.zip - 108
MAP21: NirvanaMichael Kren57.001996-02-22lv21-057.zip - 91
MAP21: NirvanaIstvan Pataki1:03.001996-03-10lv21-103.zip - 111
MAP21: NirvanaDaniel Lindgren1:12.001996-02-27lv21-112.zip - 150
MAP21: NirvanaAndreas Kren1:15.001996-01-17lv21-115.zip - 105
MAP21: NirvanaDaniel Lindgren1:18.001996-02-09lv21-118.zip - 131
MAP21: NirvanaXepop 25.002010-02-04nm21-025.zip - 305
MAP21: NirvanaJakub Razak27.002003-06-27nm21-027.zip - 208
MAP21: NirvanaAdam Hegyi28.002000-11-23nm21-028.zip - 181
MAP21: NirvanaDoug Merrill33.002001-01-04nm21-033.zip - 192
MAP21: NirvanaMarijo Sedlić53.001999-09-28nm21-053.zip - 195
MAP21: NirvanaRanjo Kahluff58.001998-06-01nm21-058.zip - 345
MAP21: NirvanaThomas Pilger1:00.001998-04-23nm21-100.zip - 161
MAP21: NirvanaIstvan Pataki1:01.001998-04-20nm21-101.zip - 158
MAP21: NirvanaThomas Pilger1:03.001998-04-03nm21-103.zip - 155
MAP21: NirvanaIstvan Pataki1:05.001997-08-08nm21-105.zip - 148
MAP21: NirvanaIstvan Pataki1:21.001997-04-14nm21-121.zip - 126
MAP21: NirvanaDaniel Lindgren1:30.001996-03-13nm21-130.zip - 164
MAP21: NirvanaIstvan Pataki3:09.001996-03-09nm21-309.zip - 139
MAP21: NirvanaAnders Johnsen2:19.002003-01-17lv21-219.zip - 289
MAP21: NirvanaAnders Johnsen2:23.002003-01-17lv21-223.zip - 222
MAP21: NirvanaIan Sutton2:28.001999-08-03lv21-228.zip - 147
MAP21: NirvanaAnders Johnsen2:35.001999-07-29lv21-235.zip - 156
MAP21: NirvanaIan Sutton2:41.001999-06-02lv21-241.zip - 163
MAP21: NirvanaAnders Johnsen2:46.001998-07-27lv21-246.zip - 162
MAP21: NirvanaIan Sutton2:54.001998-03-05lv21-254.zip - 152
MAP21: NirvanaDaniel Lindgren2:57.001997-02-25lv21-257.zip - 162
MAP21: NirvanaDaniel Lindgren3:48.001995-11-22lv21-348.zip - 173
MAP21: NirvanaSven Huth4:42.001995-04-15lv21-442.zip - 238
MAP21: NirvanaIan Jefferies9:20.001995-03-22lv21-920.zip - 131
MAP21: NirvanaJim Leonard9:34.002006-02-24ty21-934.zip - 272
MAP21: NirvanaDaniel Lindgren9:50.001997-06-18ty21-950.zip - 156
MAP21: NirvanaKim Lundqvist28.002003-11-16pa21-028.zip - 333
MAP21: NirvanaJakub Razak29.002003-06-08pa21-029.zip - 191
MAP21: NirvanaAdam Hegyi31.002000-11-23pa21-031.zip - 155
MAP21: NirvanaVincent Catalaa46.002000-01-11pa21-046.zip - 144
MAP21: NirvanaAdam Williamson52.002000-01-06pa21-052.zip - 175
MAP21: NirvanaJaromir Cihak54.002000-01-05pa21-054.zip - 151
MAP21: NirvanaMarijo Sedlić59.001999-05-23pa21-059.zip - 168
MAP21: NirvanaAndy Badorek1:03.001998-09-01pa21-103.zip - 109
MAP21: NirvanaAndy Badorek1:07.001998-05-01pa21-107.zip - 132
MAP21: NirvanaThomas Pilger1:14.001998-02-01pa21-114.zip - 112
MAP21: NirvanaSteffen Udluft5:50.001997-06-02pa21-550.zip - 97
MAP21: NirvanaRadek Pecka2:29.002004-05-17fa21-229.zip - 285
MAP21: NirvanaVincent Catalaa2:44.002000-01-30fa21-244.zip - 152
MAP21: NirvanaIan Sutton3:07.001999-12-14fa21-307.zip - 300
MAP21: NirvanaClaudio Barba3:13.001999-10-09fa21-313.zip - 116
MAP21: NirvanaMarijo Sedlić3:31.001999-06-08fa21-331.zip - 148
MAP21: NirvanaIstvan Pataki3:35.001997-03-30fa21-335.zip - 141
MAP21: NirvanaPeo Sjoblom10:22.001996-07-12f21-1022.zip - 127
MAP21: NirvanaHenning Skogsto2:15.002000-04-05re21-215.zip - 278
MAP21: NirvanaMarijo Sedlić2:16.001999-06-13re21-216.zip - 157
MAP21: NirvanaJan Endre Jansen2:21.001999-06-04re21-221.zip - 219
MAP21: NirvanaMarijo Sedlić2:30.001999-05-29re21-230.zip - 169
MAP21: NirvanaJan Endre Jansen2:41.001998-09-16re21-241.zip - 225
MAP21: NirvanaSteffen Udluft2:53.001997-06-18re21-253.zip - 163
MAP21: NirvanaAdam Hegyi38.601999-10-04d2103860.zip - 291
MAP21: NirvanaArno Slagboom42.972000-05-05d2104297.zip - 122
Remove: wad | map | category | player | all